sensor_id;sensor_type;location;lat;lon;timestamp;P1;durP1;ratioP1;P2;durP2;ratioP2
7645;SDS011;3864;48.180;14.178;2024-02-16T00:00:42;17.52;;;9.55;;
7645;SDS011;3864;48.180;14.178;2024-02-16T00:03:14;15.98;;;9.15;;
7645;SDS011;3864;48.180;14.178;2024-02-16T00:09:09;13.82;;;9.40;;
7645;SDS011;3864;48.180;14.178;2024-02-16T00:11:36;14.88;;;9.82;;
7645;SDS011;3864;48.180;14.178;2024-02-16T00:14:05;13.93;;;9.18;;
7645;SDS011;3864;48.180;14.178;2024-02-16T00:16:32;14.88;;;9.55;;
7645;SDS011;3864;48.180;14.178;2024-02-16T00:18:59;13.98;;;8.45;;
7645;SDS011;3864;48.180;14.178;2024-02-16T00:21:27;12.57;;;8.75;;
7645;SDS011;3864;48.180;14.178;2024-02-16T00:23:55;14.95;;;8.60;;
7645;SDS011;3864;48.180;14.178;2024-02-16T00:28:49;15.88;;;8.52;;
7645;SDS011;3864;48.180;14.178;2024-02-16T00:31:18;14.73;;;9.23;;
7645;SDS011;3864;48.180;14.178;2024-02-16T00:33:45;16.20;;;9.27;;
7645;SDS011;3864;48.180;14.178;2024-02-16T00:36:13;16.80;;;9.15;;
7645;SDS011;3864;48.180;14.178;2024-02-16T00:38:40;14.68;;;9.45;;
7645;SDS011;3864;48.180;14.178;2024-02-16T00:43:34;14.00;;;8.38;;
7645;SDS011;3864;48.180;14.178;2024-02-16T00:48:30;12.48;;;8.27;;
7645;SDS011;3864;48.180;14.178;2024-02-16T00:50:57;16.40;;;10.00;;
7645;SDS011;3864;48.180;14.178;2024-02-16T00:53:25;17.20;;;10.35;;
7645;SDS011;3864;48.180;14.178;2024-02-16T00:55:52;18.67;;;10.30;;
7645;SDS011;3864;48.180;14.178;2024-02-16T00:58:19;17.48;;;10.00;;
7645;SDS011;3864;48.180;14.178;2024-02-16T01:00:46;17.75;;;10.30;;
7645;SDS011;3864;48.180;14.178;2024-02-16T01:03:15;17.05;;;10.55;;
7645;SDS011;3864;48.180;14.178;2024-02-16T01:05:44;16.35;;;10.20;;
7645;SDS011;3864;48.180;14.178;2024-02-16T01:08:11;20.48;;;11.05;;
7645;SDS011;3864;48.180;14.178;2024-02-16T01:13:05;17.58;;;9.68;;
7645;SDS011;3864;48.180;14.178;2024-02-16T01:17:59;17.65;;;9.55;;
7645;SDS011;3864;48.180;14.178;2024-02-16T01:22:57;17.25;;;9.07;;
7645;SDS011;3864;48.180;14.178;2024-02-16T01:25:24;17.98;;;10.25;;
7645;SDS011;3864;48.180;14.178;2024-02-16T01:27:52;18.30;;;10.48;;
7645;SDS011;3864;48.180;14.178;2024-02-16T01:30:20;16.98;;;9.63;;
7645;SDS011;3864;48.180;14.178;2024-02-16T01:32:47;19.15;;;10.32;;
7645;SDS011;3864;48.180;14.178;2024-02-16T01:37:41;15.32;;;9.90;;
7645;SDS011;3864;48.180;14.178;2024-02-16T01:40:10;22.50;;;12.57;;
7645;SDS011;3864;48.180;14.178;2024-02-16T01:42:39;20.35;;;11.25;;
7645;SDS011;3864;48.180;14.178;2024-02-16T01:45:07;23.00;;;12.98;;
7645;SDS011;3864;48.180;14.178;2024-02-16T01:47:35;22.90;;;12.23;;
7645;SDS011;3864;48.180;14.178;2024-02-16T01:50:03;22.45;;;11.98;;
7645;SDS011;3864;48.180;14.178;2024-02-16T01:52:32;29.02;;;12.93;;
7645;SDS011;3864;48.180;14.178;2024-02-16T01:55:01;29.70;;;13.65;;
7645;SDS011;3864;48.180;14.178;2024-02-16T01:57:31;28.92;;;14.63;;
7645;SDS011;3864;48.180;14.178;2024-02-16T01:59:58;29.40;;;14.43;;
7645;SDS011;3864;48.180;14.178;2024-02-16T02:02:26;32.58;;;15.77;;
7645;SDS011;3864;48.180;14.178;2024-02-16T02:04:53;34.08;;;17.23;;
7645;SDS011;3864;48.180;14.178;2024-02-16T02:07:24;32.25;;;15.48;;
7645;SDS011;3864;48.180;14.178;2024-02-16T02:09:52;31.05;;;15.85;;
7645;SDS011;3864;48.180;14.178;2024-02-16T02:14:49;30.88;;;15.43;;
7645;SDS011;3864;48.180;14.178;2024-02-16T02:17:16;19.27;;;11.73;;
7645;SDS011;3864;48.180;14.178;2024-02-16T02:19:44;32.25;;;11.18;;
7645;SDS011;3864;48.180;14.178;2024-02-16T02:22:15;38.45;;;11.35;;
7645;SDS011;3864;48.180;14.178;2024-02-16T02:24:42;29.58;;;11.65;;
7645;SDS011;3864;48.180;14.178;2024-02-16T02:27:10;40.38;;;12.02;;
7645;SDS011;3864;48.180;14.178;2024-02-16T02:29:38;18.65;;;10.85;;
7645;SDS011;3864;48.180;14.178;2024-02-16T02:32:06;22.73;;;11.45;;
7645;SDS011;3864;48.180;14.178;2024-02-16T02:34:33;21.70;;;11.85;;
7645;SDS011;3864;48.180;14.178;2024-02-16T02:37:01;23.88;;;12.18;;
7645;SDS011;3864;48.180;14.178;2024-02-16T02:39:30;27.85;;;14.07;;
7645;SDS011;3864;48.180;14.178;2024-02-16T02:41:57;32.33;;;13.85;;
7645;SDS011;3864;48.180;14.178;2024-02-16T02:46:51;27.92;;;13.20;;
7645;SDS011;3864;48.180;14.178;2024-02-16T02:49:19;28.65;;;15.27;;
7645;SDS011;3864;48.180;14.178;2024-02-16T02:51:46;34.78;;;16.00;;
7645;SDS011;3864;48.180;14.178;2024-02-16T02:56:42;20.23;;;10.70;;
7645;SDS011;3864;48.180;14.178;2024-02-16T02:59:09;19.52;;;11.75;;
7645;SDS011;3864;48.180;14.178;2024-02-16T03:01:36;45.33;;;11.30;;
7645;SDS011;3864;48.180;14.178;2024-02-16T03:04:03;74.80;;;12.50;;
7645;SDS011;3864;48.180;14.178;2024-02-16T03:06:31;17.75;;;11.30;;
7645;SDS011;3864;48.180;14.178;2024-02-16T03:11:25;19.33;;;10.50;;
7645;SDS011;3864;48.180;14.178;2024-02-16T03:16:21;20.30;;;11.50;;
7645;SDS011;3864;48.180;14.178;2024-02-16T03:18:49;25.00;;;12.65;;
7645;SDS011;3864;48.180;14.178;2024-02-16T03:21:16;27.90;;;13.25;;
7645;SDS011;3864;48.180;14.178;2024-02-16T03:26:16;21.15;;;11.65;;
7645;SDS011;3864;48.180;14.178;2024-02-16T03:28:43;22.35;;;12.13;;
7645;SDS011;3864;48.180;14.178;2024-02-16T03:31:18;22.02;;;11.93;;
7645;SDS011;3864;48.180;14.178;2024-02-16T03:33:47;18.35;;;11.55;;
7645;SDS011;3864;48.180;14.178;2024-02-16T03:36:14;26.15;;;13.18;;
7645;SDS011;3864;48.180;14.178;2024-02-16T03:38:42;29.48;;;14.93;;
7645;SDS011;3864;48.180;14.178;2024-02-16T03:41:12;26.63;;;13.65;;
7645;SDS011;3864;48.180;14.178;2024-02-16T03:43:41;26.33;;;14.45;;
7645;SDS011;3864;48.180;14.178;2024-02-16T03:46:09;33.60;;;15.15;;
7645;SDS011;3864;48.180;14.178;2024-02-16T03:48:39;34.90;;;15.63;;
7645;SDS011;3864;48.180;14.178;2024-02-16T03:51:07;35.58;;;16.15;;
7645;SDS011;3864;48.180;14.178;2024-02-16T03:53:34;34.50;;;15.18;;
7645;SDS011;3864;48.180;14.178;2024-02-16T03:58:28;22.58;;;12.68;;
7645;SDS011;3864;48.180;14.178;2024-02-16T04:00:57;25.73;;;14.77;;
7645;SDS011;3864;48.180;14.178;2024-02-16T04:03:24;22.48;;;12.82;;
7645;SDS011;3864;48.180;14.178;2024-02-16T04:05:53;35.40;;;13.60;;
7645;SDS011;3864;48.180;14.178;2024-02-16T04:08:20;24.40;;;12.98;;
7645;SDS011;3864;48.180;14.178;2024-02-16T04:13:14;19.48;;;11.85;;
7645;SDS011;3864;48.180;14.178;2024-02-16T04:15:41;21.63;;;12.38;;
7645;SDS011;3864;48.180;14.178;2024-02-16T04:18:08;22.25;;;11.65;;
7645;SDS011;3864;48.180;14.178;2024-02-16T04:23:05;21.63;;;11.68;;
7645;SDS011;3864;48.180;14.178;2024-02-16T04:25:32;19.77;;;11.15;;
7645;SDS011;3864;48.180;14.178;2024-02-16T04:30:25;15.57;;;9.05;;
7645;SDS011;3864;48.180;14.178;2024-02-16T04:32:52;15.70;;;10.25;;
7645;SDS011;3864;48.180;14.178;2024-02-16T04:37:46;50.30;;;11.70;;
7645;SDS011;3864;48.180;14.178;2024-02-16T04:40:16;19.67;;;11.35;;
7645;SDS011;3864;48.180;14.178;2024-02-16T04:42:43;17.15;;;10.05;;
7645;SDS011;3864;48.180;14.178;2024-02-16T04:45:11;24.20;;;13.18;;
7645;SDS011;3864;48.180;14.178;2024-02-16T04:47:39;22.67;;;12.43;;
7645;SDS011;3864;48.180;14.178;2024-02-16T04:50:06;23.23;;;12.77;;
7645;SDS011;3864;48.180;14.178;2024-02-16T04:52:36;20.70;;;12.05;;
7645;SDS011;3864;48.180;14.178;2024-02-16T04:55:06;22.83;;;11.73;;
7645;SDS011;3864;48.180;14.178;2024-02-16T04:57:35;23.52;;;11.70;;
7645;SDS011;3864;48.180;14.178;2024-02-16T05:00:02;22.02;;;12.35;;
7645;SDS011;3864;48.180;14.178;2024-02-16T05:02:30;27.60;;;14.25;;
7645;SDS011;3864;48.180;14.178;2024-02-16T05:04:57;28.20;;;12.85;;
7645;SDS011;3864;48.180;14.178;2024-02-16T05:09:52;29.30;;;12.95;;
7645;SDS011;3864;48.180;14.178;2024-02-16T05:12:23;28.38;;;13.98;;
7645;SDS011;3864;48.180;14.178;2024-02-16T05:17:19;27.88;;;13.75;;
7645;SDS011;3864;48.180;14.178;2024-02-16T05:19:47;50.55;;;16.40;;
7645;SDS011;3864;48.180;14.178;2024-02-16T05:24:43;33.03;;;15.38;;
7645;SDS011;3864;48.180;14.178;2024-02-16T05:29:37;29.48;;;15.77;;
7645;SDS011;3864;48.180;14.178;2024-02-16T05:32:06;33.92;;;16.80;;
7645;SDS011;3864;48.180;14.178;2024-02-16T05:34:33;34.50;;;17.25;;
7645;SDS011;3864;48.180;14.178;2024-02-16T05:37:04;38.42;;;17.35;;
7645;SDS011;3864;48.180;14.178;2024-02-16T05:39:32;46.13;;;18.88;;
7645;SDS011;3864;48.180;14.178;2024-02-16T05:42:01;42.17;;;18.58;;
7645;SDS011;3864;48.180;14.178;2024-02-16T05:44:29;51.88;;;20.83;;
7645;SDS011;3864;48.180;14.178;2024-02-16T05:46:58;59.80;;;21.45;;
7645;SDS011;3864;48.180;14.178;2024-02-16T05:51:53;55.40;;;19.77;;
7645;SDS011;3864;48.180;14.178;2024-02-16T05:54:40;50.35;;;21.73;;
7645;SDS011;3864;48.180;14.178;2024-02-16T05:59:35;39.40;;;18.52;;
7645;SDS011;3864;48.180;14.178;2024-02-16T06:02:03;43.20;;;19.38;;
7645;SDS011;3864;48.180;14.178;2024-02-16T06:04:33;46.63;;;20.50;;
7645;SDS011;3864;48.180;14.178;2024-02-16T06:07:00;57.55;;;23.85;;
7645;SDS011;3864;48.180;14.178;2024-02-16T06:09:27;70.70;;;25.58;;
7645;SDS011;3864;48.180;14.178;2024-02-16T06:12:00;65.50;;;25.17;;
7645;SDS011;3864;48.180;14.178;2024-02-16T06:14:29;94.80;;;29.33;;
7645;SDS011;3864;48.180;14.178;2024-02-16T06:16:57;86.97;;;29.67;;
7645;SDS011;3864;48.180;14.178;2024-02-16T06:19:24;95.43;;;30.33;;
7645;SDS011;3864;48.180;14.178;2024-02-16T06:21:54;107.70;;;33.13;;
7645;SDS011;3864;48.180;14.178;2024-02-16T06:24:21;119.30;;;33.13;;
7645;SDS011;3864;48.180;14.178;2024-02-16T06:26:48;116.45;;;32.17;;
7645;SDS011;3864;48.180;14.178;2024-02-16T06:29:16;110.13;;;34.00;;
7645;SDS011;3864;48.180;14.178;2024-02-16T06:31:44;108.00;;;34.15;;
7645;SDS011;3864;48.180;14.178;2024-02-16T06:34:12;109.55;;;33.47;;
7645;SDS011;3864;48.180;14.178;2024-02-16T06:36:39;124.70;;;33.70;;
7645;SDS011;3864;48.180;14.178;2024-02-16T06:39:08;111.07;;;35.70;;
7645;SDS011;3864;48.180;14.178;2024-02-16T06:41:35;126.85;;;36.10;;
7645;SDS011;3864;48.180;14.178;2024-02-16T06:44:04;119.97;;;35.45;;
7645;SDS011;3864;48.180;14.178;2024-02-16T06:46:31;131.68;;;37.58;;
7645;SDS011;3864;48.180;14.178;2024-02-16T06:48:58;133.18;;;36.42;;
7645;SDS011;3864;48.180;14.178;2024-02-16T06:51:25;126.22;;;36.58;;
7645;SDS011;3864;48.180;14.178;2024-02-16T06:53:53;130.43;;;37.67;;
7645;SDS011;3864;48.180;14.178;2024-02-16T06:56:22;128.05;;;37.35;;
7645;SDS011;3864;48.180;14.178;2024-02-16T06:58:50;146.43;;;37.92;;
7645;SDS011;3864;48.180;14.178;2024-02-16T07:01:17;134.10;;;38.35;;
7645;SDS011;3864;48.180;14.178;2024-02-16T07:03:44;115.13;;;37.65;;
7645;SDS011;3864;48.180;14.178;2024-02-16T07:06:12;134.15;;;37.00;;
7645;SDS011;3864;48.180;14.178;2024-02-16T07:08:39;112.28;;;34.83;;
7645;SDS011;3864;48.180;14.178;2024-02-16T07:11:06;135.20;;;36.03;;
7645;SDS011;3864;48.180;14.178;2024-02-16T07:13:38;130.38;;;37.53;;
7645;SDS011;3864;48.180;14.178;2024-02-16T07:16:06;139.75;;;37.50;;
7645;SDS011;3864;48.180;14.178;2024-02-16T07:18:33;125.70;;;37.05;;
7645;SDS011;3864;48.180;14.178;2024-02-16T07:21:00;138.07;;;38.15;;
7645;SDS011;3864;48.180;14.178;2024-02-16T07:23:28;112.10;;;36.25;;
7645;SDS011;3864;48.180;14.178;2024-02-16T07:25:56;120.35;;;36.40;;
7645;SDS011;3864;48.180;14.178;2024-02-16T07:28:23;100.63;;;35.20;;
7645;SDS011;3864;48.180;14.178;2024-02-16T07:30:53;112.18;;;36.70;;
7645;SDS011;3864;48.180;14.178;2024-02-16T07:33:20;115.78;;;36.05;;
7645;SDS011;3864;48.180;14.178;2024-02-16T07:35:49;114.07;;;34.10;;
7645;SDS011;3864;48.180;14.178;2024-02-16T07:38:16;106.13;;;37.08;;
7645;SDS011;3864;48.180;14.178;2024-02-16T07:40:44;110.90;;;37.67;;
7645;SDS011;3864;48.180;14.178;2024-02-16T07:43:11;128.32;;;36.10;;
7645;SDS011;3864;48.180;14.178;2024-02-16T07:48:08;113.18;;;35.25;;
7645;SDS011;3864;48.180;14.178;2024-02-16T07:50:35;112.03;;;38.72;;
7645;SDS011;3864;48.180;14.178;2024-02-16T07:53:02;110.95;;;39.20;;
7645;SDS011;3864;48.180;14.178;2024-02-16T07:55:29;121.30;;;39.92;;
7645;SDS011;3864;48.180;14.178;2024-02-16T07:57:56;114.28;;;37.13;;
7645;SDS011;3864;48.180;14.178;2024-02-16T08:00:24;107.85;;;36.63;;
7645;SDS011;3864;48.180;14.178;2024-02-16T08:02:53;102.53;;;37.92;;
7645;SDS011;3864;48.180;14.178;2024-02-16T08:05:21;112.70;;;37.58;;
7645;SDS011;3864;48.180;14.178;2024-02-16T08:07:49;110.85;;;38.60;;
7645;SDS011;3864;48.180;14.178;2024-02-16T08:10:18;101.57;;;34.65;;
7645;SDS011;3864;48.180;14.178;2024-02-16T08:12:46;107.75;;;36.65;;
7645;SDS011;3864;48.180;14.178;2024-02-16T08:15:13;106.55;;;34.92;;
7645;SDS011;3864;48.180;14.178;2024-02-16T08:17:40;107.25;;;36.55;;
7645;SDS011;3864;48.180;14.178;2024-02-16T08:22:36;130.80;;;42.72;;
7645;SDS011;3864;48.180;14.178;2024-02-16T08:25:03;119.50;;;40.55;;
7645;SDS011;3864;48.180;14.178;2024-02-16T08:27:31;115.47;;;38.05;;
7645;SDS011;3864;48.180;14.178;2024-02-16T08:29:58;106.55;;;37.83;;
7645;SDS011;3864;48.180;14.178;2024-02-16T08:32:27;100.90;;;36.45;;
7645;SDS011;3864;48.180;14.178;2024-02-16T08:34:54;99.60;;;37.30;;
7645;SDS011;3864;48.180;14.178;2024-02-16T08:37:23;108.55;;;35.83;;
7645;SDS011;3864;48.180;14.178;2024-02-16T08:39:52;106.35;;;37.13;;
7645;SDS011;3864;48.180;14.178;2024-02-16T08:42:19;117.70;;;38.35;;
7645;SDS011;3864;48.180;14.178;2024-02-16T08:44:48;106.15;;;37.28;;
7645;SDS011;3864;48.180;14.178;2024-02-16T08:47:15;115.75;;;38.58;;
7645;SDS011;3864;48.180;14.178;2024-02-16T08:49:42;97.82;;;36.50;;
7645;SDS011;3864;48.180;14.178;2024-02-16T08:52:09;108.32;;;39.80;;
7645;SDS011;3864;48.180;14.178;2024-02-16T08:54:37;101.20;;;38.75;;
7645;SDS011;3864;48.180;14.178;2024-02-16T08:57:06;93.85;;;37.83;;
7645;SDS011;3864;48.180;14.178;2024-02-16T08:59:33;107.25;;;38.72;;
7645;SDS011;3864;48.180;14.178;2024-02-16T09:02:00;103.80;;;38.80;;
7645;SDS011;3864;48.180;14.178;2024-02-16T09:04:27;94.75;;;37.80;;
7645;SDS011;3864;48.180;14.178;2024-02-16T09:06:54;96.45;;;37.72;;
7645;SDS011;3864;48.180;14.178;2024-02-16T09:09:21;95.80;;;39.97;;
7645;SDS011;3864;48.180;14.178;2024-02-16T09:11:49;93.13;;;37.40;;
7645;SDS011;3864;48.180;14.178;2024-02-16T09:14:17;96.95;;;40.78;;
7645;SDS011;3864;48.180;14.178;2024-02-16T09:16:44;84.80;;;37.90;;
7645;SDS011;3864;48.180;14.178;2024-02-16T09:19:14;84.30;;;34.95;;
7645;SDS011;3864;48.180;14.178;2024-02-16T09:21:44;87.95;;;37.25;;
7645;SDS011;3864;48.180;14.178;2024-02-16T09:24:20;81.07;;;35.45;;
7645;SDS011;3864;48.180;14.178;2024-02-16T09:26:47;74.00;;;35.20;;
7645;SDS011;3864;48.180;14.178;2024-02-16T09:29:14;65.93;;;31.63;;
7645;SDS011;3864;48.180;14.178;2024-02-16T09:31:44;71.38;;;32.05;;
7645;SDS011;3864;48.180;14.178;2024-02-16T09:34:15;62.28;;;31.92;;
7645;SDS011;3864;48.180;14.178;2024-02-16T09:36:45;60.50;;;31.00;;
7645;SDS011;3864;48.180;14.178;2024-02-16T09:45:45;50.25;;;26.85;;
7645;SDS011;3864;48.180;14.178;2024-02-16T09:50:59;42.40;;;23.80;;
7645;SDS011;3864;48.180;14.178;2024-02-16T09:53:35;39.15;;;23.25;;
7645;SDS011;3864;48.180;14.178;2024-02-16T09:56:04;35.17;;;21.75;;
7645;SDS011;3864;48.180;14.178;2024-02-16T09:58:34;37.03;;;22.50;;
7645;SDS011;3864;48.180;14.178;2024-02-16T10:01:01;34.80;;;20.38;;
7645;SDS011;3864;48.180;14.178;2024-02-16T10:03:30;35.05;;;20.63;;
7645;SDS011;3864;48.180;14.178;2024-02-16T10:06:09;31.08;;;20.17;;
7645;SDS011;3864;48.180;14.178;2024-02-16T10:09:21;33.17;;;19.40;;
7645;SDS011;3864;48.180;14.178;2024-02-16T10:11:57;30.08;;;18.98;;
7645;SDS011;3864;48.180;14.178;2024-02-16T10:14:26;34.78;;;19.50;;
7645;SDS011;3864;48.180;14.178;2024-02-16T10:17:00;30.48;;;19.45;;
7645;SDS011;3864;48.180;14.178;2024-02-16T10:19:36;31.38;;;19.60;;
7645;SDS011;3864;48.180;14.178;2024-02-16T10:22:06;30.33;;;19.45;;
7645;SDS011;3864;48.180;14.178;2024-02-16T10:24:35;27.75;;;17.60;;
7645;SDS011;3864;48.180;14.178;2024-02-16T10:27:05;26.48;;;17.17;;
7645;SDS011;3864;48.180;14.178;2024-02-16T10:29:33;28.95;;;17.48;;
7645;SDS011;3864;48.180;14.178;2024-02-16T10:32:02;28.20;;;17.15;;
7645;SDS011;3864;48.180;14.178;2024-02-16T10:34:56;26.65;;;16.58;;
7645;SDS011;3864;48.180;14.178;2024-02-16T10:37:26;28.10;;;18.27;;
7645;SDS011;3864;48.180;14.178;2024-02-16T10:40:29;27.10;;;16.45;;
7645;SDS011;3864;48.180;14.178;2024-02-16T10:43:05;28.00;;;17.63;;
7645;SDS011;3864;48.180;14.178;2024-02-16T10:45:33;28.17;;;17.98;;
7645;SDS011;3864;48.180;14.178;2024-02-16T10:48:02;27.67;;;17.00;;
7645;SDS011;3864;48.180;14.178;2024-02-16T10:50:38;27.50;;;16.80;;
7645;SDS011;3864;48.180;14.178;2024-02-16T10:53:09;30.92;;;17.38;;
7645;SDS011;3864;48.180;14.178;2024-02-16T10:55:43;28.48;;;18.58;;
7645;SDS011;3864;48.180;14.178;2024-02-16T10:58:16;26.63;;;17.25;;
7645;SDS011;3864;48.180;14.178;2024-02-16T11:04:22;27.00;;;17.42;;
7645;SDS011;3864;48.180;14.178;2024-02-16T11:16:53;28.85;;;17.23;;
7645;SDS011;3864;48.180;14.178;2024-02-16T11:19:29;27.33;;;17.65;;
7645;SDS011;3864;48.180;14.178;2024-02-16T11:22:14;30.60;;;18.90;;
7645;SDS011;3864;48.180;14.178;2024-02-16T11:25:17;27.33;;;18.38;;
7645;SDS011;3864;48.180;14.178;2024-02-16T11:27:45;28.77;;;17.60;;
7645;SDS011;3864;48.180;14.178;2024-02-16T11:30:15;29.33;;;17.27;;
7645;SDS011;3864;48.180;14.178;2024-02-16T11:32:43;32.38;;;19.15;;
7645;SDS011;3864;48.180;14.178;2024-02-16T11:35:13;25.63;;;17.75;;
7645;SDS011;3864;48.180;14.178;2024-02-16T11:37:41;26.73;;;17.42;;
7645;SDS011;3864;48.180;14.178;2024-02-16T11:40:11;31.10;;;19.73;;
7645;SDS011;3864;48.180;14.178;2024-02-16T11:42:39;29.85;;;18.40;;
7645;SDS011;3864;48.180;14.178;2024-02-16T11:45:09;27.10;;;17.70;;
7645;SDS011;3864;48.180;14.178;2024-02-16T11:47:46;25.30;;;16.95;;
7645;SDS011;3864;48.180;14.178;2024-02-16T11:50:17;26.65;;;17.17;;
7645;SDS011;3864;48.180;14.178;2024-02-16T11:52:45;25.88;;;17.30;;
7645;SDS011;3864;48.180;14.178;2024-02-16T11:55:13;25.25;;;17.75;;
7645;SDS011;3864;48.180;14.178;2024-02-16T11:57:41;24.52;;;15.82;;
7645;SDS011;3864;48.180;14.178;2024-02-16T12:00:10;25.20;;;16.67;;
7645;SDS011;3864;48.180;14.178;2024-02-16T12:02:42;26.92;;;17.30;;
7645;SDS011;3864;48.180;14.178;2024-02-16T12:05:13;26.40;;;16.52;;
7645;SDS011;3864;48.180;14.178;2024-02-16T12:07:53;25.30;;;16.63;;
7645;SDS011;3864;48.180;14.178;2024-02-16T12:10:24;24.95;;;17.00;;
7645;SDS011;3864;48.180;14.178;2024-02-16T12:12:55;24.77;;;17.58;;
7645;SDS011;3864;48.180;14.178;2024-02-16T12:15:22;25.58;;;17.50;;
7645;SDS011;3864;48.180;14.178;2024-02-16T12:17:59;25.10;;;16.45;;
7645;SDS011;3864;48.180;14.178;2024-02-16T12:20:27;23.85;;;16.08;;
7645;SDS011;3864;48.180;14.178;2024-02-16T12:22:56;27.15;;;17.63;;
7645;SDS011;3864;48.180;14.178;2024-02-16T12:25:24;24.88;;;16.60;;
7645;SDS011;3864;48.180;14.178;2024-02-16T12:27:51;26.67;;;17.25;;
7645;SDS011;3864;48.180;14.178;2024-02-16T12:30:19;26.63;;;16.55;;
7645;SDS011;3864;48.180;14.178;2024-02-16T12:32:46;25.40;;;16.75;;
7645;SDS011;3864;48.180;14.178;2024-02-16T12:35:14;26.90;;;16.48;;
7645;SDS011;3864;48.180;14.178;2024-02-16T12:37:42;26.48;;;17.42;;
7645;SDS011;3864;48.180;14.178;2024-02-16T12:40:09;26.20;;;17.15;;
7645;SDS011;3864;48.180;14.178;2024-02-16T12:42:37;27.63;;;17.80;;
7645;SDS011;3864;48.180;14.178;2024-02-16T12:45:15;25.58;;;16.90;;
7645;SDS011;3864;48.180;14.178;2024-02-16T12:47:49;28.23;;;17.23;;
7645;SDS011;3864;48.180;14.178;2024-02-16T12:50:20;27.50;;;17.42;;
7645;SDS011;3864;48.180;14.178;2024-02-16T12:52:53;27.17;;;17.65;;
7645;SDS011;3864;48.180;14.178;2024-02-16T12:55:35;26.70;;;17.25;;
7645;SDS011;3864;48.180;14.178;2024-02-16T12:58:04;26.80;;;17.40;;
7645;SDS011;3864;48.180;14.178;2024-02-16T13:00:32;28.00;;;17.80;;
7645;SDS011;3864;48.180;14.178;2024-02-16T13:02:59;27.08;;;17.45;;
7645;SDS011;3864;48.180;14.178;2024-02-16T13:05:31;27.60;;;16.88;;
7645;SDS011;3864;48.180;14.178;2024-02-16T13:08:05;24.35;;;16.48;;
7645;SDS011;3864;48.180;14.178;2024-02-16T13:10:33;26.55;;;16.85;;
7645;SDS011;3864;48.180;14.178;2024-02-16T13:13:01;25.77;;;16.50;;
7645;SDS011;3864;48.180;14.178;2024-02-16T13:15:28;28.65;;;18.27;;
7645;SDS011;3864;48.180;14.178;2024-02-16T13:17:55;26.30;;;17.40;;
7645;SDS011;3864;48.180;14.178;2024-02-16T13:20:28;27.77;;;18.05;;
7645;SDS011;3864;48.180;14.178;2024-02-16T13:23:03;27.40;;;18.17;;
7645;SDS011;3864;48.180;14.178;2024-02-16T13:25:31;25.38;;;16.95;;
7645;SDS011;3864;48.180;14.178;2024-02-16T13:28:11;25.85;;;16.75;;
7645;SDS011;3864;48.180;14.178;2024-02-16T13:30:47;23.95;;;16.63;;
7645;SDS011;3864;48.180;14.178;2024-02-16T13:33:23;24.30;;;17.13;;
7645;SDS011;3864;48.180;14.178;2024-02-16T13:35:52;26.27;;;17.25;;
7645;SDS011;3864;48.180;14.178;2024-02-16T13:38:19;24.42;;;17.13;;
7645;SDS011;3864;48.180;14.178;2024-02-16T13:40:53;26.50;;;17.05;;
7645;SDS011;3864;48.180;14.178;2024-02-16T13:43:23;26.70;;;17.20;;
7645;SDS011;3864;48.180;14.178;2024-02-16T13:46:03;23.60;;;16.13;;
7645;SDS011;3864;48.180;14.178;2024-02-16T13:48:30;26.10;;;17.50;;
7645;SDS011;3864;48.180;14.178;2024-02-16T13:51:00;22.77;;;15.05;;
7645;SDS011;3864;48.180;14.178;2024-02-16T13:53:27;26.05;;;15.80;;
7645;SDS011;3864;48.180;14.178;2024-02-16T13:55:55;24.77;;;17.23;;
7645;SDS011;3864;48.180;14.178;2024-02-16T13:58:26;24.38;;;17.15;;
7645;SDS011;3864;48.180;14.178;2024-02-16T14:00:53;23.90;;;15.98;;
7645;SDS011;3864;48.180;14.178;2024-02-16T14:03:20;25.10;;;16.35;;
7645;SDS011;3864;48.180;14.178;2024-02-16T14:05:48;22.52;;;16.05;;
7645;SDS011;3864;48.180;14.178;2024-02-16T14:08:20;23.05;;;16.90;;
7645;SDS011;3864;48.180;14.178;2024-02-16T14:10:55;25.23;;;16.38;;
7645;SDS011;3864;48.180;14.178;2024-02-16T14:16:12;23.83;;;15.90;;
7645;SDS011;3864;48.180;14.178;2024-02-16T14:18:39;24.13;;;15.07;;
7645;SDS011;3864;48.180;14.178;2024-02-16T14:21:10;22.70;;;15.23;;
7645;SDS011;3864;48.180;14.178;2024-02-16T14:23:49;21.27;;;14.80;;
7645;SDS011;3864;48.180;14.178;2024-02-16T14:26:17;27.55;;;16.33;;
7645;SDS011;3864;48.180;14.178;2024-02-16T14:28:45;21.52;;;15.38;;
7645;SDS011;3864;48.180;14.178;2024-02-16T14:31:12;23.23;;;16.33;;
7645;SDS011;3864;48.180;14.178;2024-02-16T14:33:39;24.67;;;16.52;;
7645;SDS011;3864;48.180;14.178;2024-02-16T14:36:08;24.13;;;16.42;;
7645;SDS011;3864;48.180;14.178;2024-02-16T14:38:36;24.08;;;16.20;;
7645;SDS011;3864;48.180;14.178;2024-02-16T14:41:05;27.00;;;17.73;;
7645;SDS011;3864;48.180;14.178;2024-02-16T14:43:33;22.58;;;16.17;;
7645;SDS011;3864;48.180;14.178;2024-02-16T14:46:03;23.77;;;17.35;;
7645;SDS011;3864;48.180;14.178;2024-02-16T14:48:34;24.30;;;16.17;;
7645;SDS011;3864;48.180;14.178;2024-02-16T14:51:02;27.27;;;16.38;;
7645;SDS011;3864;48.180;14.178;2024-02-16T14:53:30;28.88;;;16.55;;
7645;SDS011;3864;48.180;14.178;2024-02-16T14:55:58;23.42;;;17.25;;
7645;SDS011;3864;48.180;14.178;2024-02-16T14:58:27;26.52;;;16.45;;
7645;SDS011;3864;48.180;14.178;2024-02-16T15:00:54;22.85;;;14.98;;
7645;SDS011;3864;48.180;14.178;2024-02-16T15:03:21;23.25;;;15.20;;
7645;SDS011;3864;48.180;14.178;2024-02-16T15:05:50;25.02;;;17.25;;
7645;SDS011;3864;48.180;14.178;2024-02-16T15:08:17;26.75;;;16.15;;
7645;SDS011;3864;48.180;14.178;2024-02-16T15:10:45;27.52;;;17.15;;
7645;SDS011;3864;48.180;14.178;2024-02-16T15:13:12;24.13;;;16.88;;
7645;SDS011;3864;48.180;14.178;2024-02-16T15:15:41;26.08;;;17.50;;
7645;SDS011;3864;48.180;14.178;2024-02-16T15:18:08;26.77;;;18.60;;
7645;SDS011;3864;48.180;14.178;2024-02-16T15:20:36;26.15;;;17.73;;
7645;SDS011;3864;48.180;14.178;2024-02-16T15:23:03;28.45;;;19.35;;
7645;SDS011;3864;48.180;14.178;2024-02-16T15:25:30;26.77;;;18.17;;
7645;SDS011;3864;48.180;14.178;2024-02-16T15:27:57;28.42;;;17.05;;
7645;SDS011;3864;48.180;14.178;2024-02-16T15:30:24;30.73;;;18.25;;
7645;SDS011;3864;48.180;14.178;2024-02-16T15:32:56;27.15;;;17.95;;
7645;SDS011;3864;48.180;14.178;2024-02-16T15:35:25;29.25;;;19.63;;
7645;SDS011;3864;48.180;14.178;2024-02-16T15:37:52;25.95;;;18.58;;
7645;SDS011;3864;48.180;14.178;2024-02-16T15:40:19;28.65;;;19.08;;
7645;SDS011;3864;48.180;14.178;2024-02-16T15:42:58;29.33;;;18.73;;
7645;SDS011;3864;48.180;14.178;2024-02-16T15:45:36;28.55;;;18.58;;
7645;SDS011;3864;48.180;14.178;2024-02-16T15:48:13;27.02;;;18.30;;
7645;SDS011;3864;48.180;14.178;2024-02-16T15:50:41;24.60;;;16.48;;
7645;SDS011;3864;48.180;14.178;2024-02-16T15:53:08;23.67;;;15.00;;
7645;SDS011;3864;48.180;14.178;2024-02-16T15:55:36;22.65;;;16.27;;
7645;SDS011;3864;48.180;14.178;2024-02-16T15:58:04;23.30;;;14.90;;
7645;SDS011;3864;48.180;14.178;2024-02-16T16:00:31;22.90;;;14.80;;
7645;SDS011;3864;48.180;14.178;2024-02-16T16:03:02;23.17;;;14.25;;
7645;SDS011;3864;48.180;14.178;2024-02-16T16:05:34;23.15;;;16.08;;
7645;SDS011;3864;48.180;14.178;2024-02-16T16:10:46;24.38;;;15.95;;
7645;SDS011;3864;48.180;14.178;2024-02-16T16:13:16;22.30;;;15.05;;
7645;SDS011;3864;48.180;14.178;2024-02-16T16:15:49;23.50;;;15.85;;
7645;SDS011;3864;48.180;14.178;2024-02-16T16:18:19;23.60;;;15.82;;
7645;SDS011;3864;48.180;14.178;2024-02-16T16:23:38;21.23;;;13.93;;